Time;durP1;ratioP1;P1;durP2;ratioP2;P2;SDS_P1;SDS_P2;PMS_P1;PMS_P2;Temp;Humidity;BMP_temperature;BMP_pressure;BME280_temperature;BME280_humidity;BME280_pressure;Samples;Min_cycle;Max_cycle;Signal;HPM_P1;HPM_P2
2021/08/31 00:00:28;;;;;;;12.55;6.90;;;;;;;14.66;100.00;101028.38;4981867;28;20053;-86
2021/08/31 00:02:56;;;;;;;10.23;6.35;;;;;;;14.66;100.00;101028.38;4991700;28;20042;-85
2021/08/31 00:05:23;;;;;;;8.35;6.40;;;;;;;14.63;100.00;101019.59;4977527;28;20053;-86
2021/08/31 00:07:49;;;;;;;10.50;6.90;;;;;;;14.70;100.00;101024.69;5011656;28;20046;-85
2021/08/31 00:10:17;;;;;;;9.48;6.30;;;;;;;14.64;100.00;101025.78;4983841;28;20477;-85
2021/08/31 00:12:43;;;;;;;11.10;7.85;;;;;;;14.53;100.00;101011.94;4960832;28;20046;-86
2021/08/31 00:15:11;;;;;;;10.80;6.65;;;;;;;14.57;100.00;101006.47;4993781;28;20069;-87
2021/08/31 00:17:38;;;;;;;9.85;6.97;;;;;;;14.61;100.00;101005.44;4975192;28;20124;-86
2021/08/31 00:20:06;;;;;;;10.57;6.82;;;;;;;14.57;100.00;101008.28;4992615;28;20041;-84
2021/08/31 00:22:35;;;;;;;10.80;7.03;;;;;;;14.48;100.00;101001.47;4958749;28;20407;-86
2021/08/31 00:25:07;;;;;;;11.07;6.50;;;;;;;14.52;100.00;101011.06;5007218;28;20577;-87
2021/08/31 00:27:34;;;;;;;10.80;6.75;;;;;;;14.52;100.00;101016.38;4992858;28;20491;-84
2021/08/31 00:30:01;;;;;;;9.07;6.97;;;;;;;14.49;100.00;101013.81;4981192;28;20054;-86
2021/08/31 00:32:28;;;;;;;9.27;6.80;;;;;;;14.49;100.00;101024.47;4962943;28;20052;-87
2021/08/31 00:34:54;;;;;;;9.88;6.90;;;;;;;14.54;100.00;101025.16;5049831;23;20045;-85
2021/08/31 00:37:21;;;;;;;13.02;7.90;;;;;;;14.54;100.00;101019.84;4985094;28;20037;-85
2021/08/31 00:39:48;;;;;;;9.13;7.20;;;;;;;14.54;100.00;101018.97;4978080;28;20058;-82
2021/08/31 00:42:14;;;;;;;8.93;6.60;;;;;;;14.54;100.00;101026.97;4969751;28;20045;-83
2021/08/31 00:44:41;;;;;;;10.88;6.93;;;;;;;14.57;100.00;101019.78;4978862;28;20041;-85
2021/08/31 00:47:08;;;;;;;13.48;7.55;;;;;;;14.58;100.00;101020.66;4991114;28;20121;-85
2021/08/31 00:49:35;;;;;;;10.55;6.55;;;;;;;14.57;100.00;101014.47;4984588;28;20058;-85
2021/08/31 00:52:02;;;;;;;11.68;6.50;;;;;;;14.55;100.00;101018.97;4994355;28;20069;-85
2021/08/31 00:54:29;;;;;;;12.70;6.80;;;;;;;14.63;100.00;101018.72;4993520;28;20506;-85
2021/08/31 00:56:58;;;;;;;8.05;6.47;;;;;;;14.65;100.00;101014.22;5008794;28;20045;-85
2021/08/31 00:59:25;;;;;;;9.50;6.63;;;;;;;14.65;100.00;101016.88;4994403;28;20041;-82
2021/08/31 01:01:55;;;;;;;10.85;8.07;;;;;;;14.60;100.00;101022.31;4994588;28;20045;-86
2021/08/31 01:04:23;;;;;;;8.93;6.90;;;;;;;14.49;100.00;101023.59;5012437;28;20514;-86
2021/08/31 01:06:52;;;;;;;8.93;7.43;;;;;;;14.53;100.00;101018.13;4991012;28;20049;-84
2021/08/31 01:09:23;;;;;;;8.15;6.85;;;;;;;14.59;100.00;101014.41;4978818;28;20129;-83
2021/08/31 01:11:53;;;;;;;11.80;7.38;;;;;;;14.60;100.00;101019.66;5009641;28;20061;-84
2021/08/31 01:14:22;;;;;;;10.50;7.43;;;;;;;14.57;100.00;101022.44;4982194;28;20041;-85
2021/08/31 01:16:49;;;;;;;11.25;7.78;;;;;;;14.55;100.00;101024.28;4990425;28;20042;-86
2021/08/31 01:19:29;;;;;;;11.10;7.47;;;;;;;14.53;100.00;101018.13;4983224;28;20052;-85
2021/08/31 01:22:09;;;;;;;12.88;7.95;;;;;;;14.55;100.00;101015.44;5008910;28;20079;-86
2021/08/31 01:24:40;;;;;;;12.77;7.88;;;;;;;14.56;100.00;101027.81;5005521;28;20092;-87
2021/08/31 01:27:07;;;;;;;10.98;7.60;;;;;;;14.34;100.00;101030.22;5007319;28;20045;-86
2021/08/31 01:29:34;;;;;;;11.55;8.02;;;;;;;14.37;100.00;101040.72;4992417;28;20132;-86
2021/08/31 01:32:01;;;;;;;13.23;8.13;;;;;;;14.38;100.00;101029.22;5022019;28;20518;-84
2021/08/31 01:34:28;;;;;;;13.85;7.90;;;;;;;14.42;100.00;101024.66;4994253;28;20494;-85
2021/08/31 01:36:55;;;;;;;11.10;7.60;;;;;;;14.40;100.00;101018.53;4975619;28;20059;-86
2021/08/31 01:39:22;;;;;;;13.65;8.55;;;;;;;14.43;100.00;101029.94;4994737;28;20326;-85
2021/08/31 01:41:48;;;;;;;12.10;7.97;;;;;;;14.41;100.00;101034.41;4985968;28;20541;-88
2021/08/31 01:44:15;;;;;;;11.35;7.57;;;;;;;14.29;100.00;101025.03;4994832;28;20049;-85
2021/08/31 01:46:46;;;;;;;13.50;7.78;;;;;;;14.45;100.00;101038.75;4994407;28;20048;-86
2021/08/31 01:49:16;;;;;;;11.90;8.02;;;;;;;14.43;100.00;101045.00;4988788;28;20033;-88
2021/08/31 01:51:43;;;;;;;9.43;7.40;;;;;;;14.37;100.00;101035.41;5026100;28;20095;-87
2021/08/31 01:54:09;;;;;;;12.45;8.07;;;;;;;14.29;100.00;101032.13;4999724;28;20045;-86
2021/08/31 01:56:36;;;;;;;11.57;7.55;;;;;;;14.30;100.00;101034.75;5010497;28;20564;-86
2021/08/31 01:59:03;;;;;;;10.45;7.80;;;;;;;14.36;100.00;101031.03;4979305;28;20045;-86
2021/08/31 02:01:30;;;;;;;13.90;7.70;;;;;;;14.33;100.00;101026.69;4978654;28;20394;-86
2021/08/31 02:03:57;;;;;;;14.55;8.10;;;;;;;14.39;100.00;101024.75;4980053;28;20459;-84
2021/08/31 02:06:23;;;;;;;10.73;7.63;;;;;;;14.29;100.00;101022.38;4980218;28;20054;-87
2021/08/31 02:08:50;;;;;;;10.75;8.50;;;;;;;14.39;100.00;101020.31;4983197;28;20653;-87
2021/08/31 02:11:17;;;;;;;17.90;8.35;;;;;;;14.45;100.00;101027.22;5004312;28;20056;-87
2021/08/31 02:13:44;;;;;;;9.80;7.30;;;;;;;14.39;100.00;101020.31;4976124;28;20510;-87
2021/08/31 02:16:14;;;;;;;12.27;8.07;;;;;;;14.40;100.00;101023.84;4992572;28;20050;-87
2021/08/31 02:18:40;;;;;;;11.80;8.02;;;;;;;14.35;100.00;101029.28;5004437;28;20042;-86
2021/08/31 02:21:11;;;;;;;10.07;7.85;;;;;;;14.26;100.00;101032.22;5012137;28;20041;-87
2021/08/31 02:23:44;;;;;;;10.23;8.05;;;;;;;14.29;100.00;101024.16;4979221;28;20514;-86
2021/08/31 02:26:10;;;;;;;11.52;7.72;;;;;;;14.31;100.00;101022.34;5010083;28;20531;-87
2021/08/31 02:28:37;;;;;;;10.88;8.02;;;;;;;14.44;100.00;101023.69;4992027;28;20434;-83
2021/08/31 02:31:04;;;;;;;15.32;8.55;;;;;;;14.33;100.00;101021.34;4980709;28;20042;-84
2021/08/31 02:33:30;;;;;;;12.13;8.00;;;;;;;14.31;100.00;101022.34;5028268;28;20061;-86
2021/08/31 02:35:57;;;;;;;10.55;7.65;;;;;;;14.29;100.00;101025.03;4980261;28;20051;-88
2021/08/31 02:38:24;;;;;;;10.98;7.70;;;;;;;14.40;100.00;101022.06;5005557;28;20053;-86
2021/08/31 02:40:50;;;;;;;12.35;7.88;;;;;;;14.42;100.00;101028.19;5002365;28;20041;-87
2021/08/31 02:43:17;;;;;;;9.00;6.90;;;;;;;14.42;100.00;101025.53;4979149;28;20541;-86
2021/08/31 02:45:44;;;;;;;9.48;7.10;;;;;;;14.37;100.00;101032.75;4991997;28;20038;-88
2021/08/31 02:48:10;;;;;;;12.48;7.65;;;;;;;14.32;100.00;101021.41;4996733;28;20095;-86
2021/08/31 02:50:37;;;;;;;11.15;7.72;;;;;;;14.31;100.00;101027.66;5008812;28;20042;-85
2021/08/31 02:53:04;;;;;;;10.10;7.65;;;;;;;14.34;100.00;101024.88;5001997;28;20371;-86
2021/08/31 02:55:31;;;;;;;13.75;8.80;;;;;;;14.46;100.00;101015.69;5008751;28;20034;-85
2021/08/31 02:57:58;;;;;;;10.70;8.27;;;;;;;14.40;100.00;101024.72;4992904;28;20045;-87
2021/08/31 03:00:30;;;;;;;15.05;8.45;;;;;;;14.37;100.00;101027.44;4995429;28;20136;-84
2021/08/31 03:02:58;;;;;;;13.13;8.18;;;;;;;14.36;100.00;101033.69;4995302;28;20502;-85
2021/08/31 03:05:25;;;;;;;11.85;7.85;;;;;;;14.41;100.00;101018.47;4995704;28;20426;-84
2021/08/31 03:07:52;;;;;;;9.85;7.35;;;;;;;14.33;100.00;101023.16;4994741;28;20387;-84
2021/08/31 03:10:21;;;;;;;11.27;7.82;;;;;;;14.43;100.00;101013.09;4984134;28;20069;-85
2021/08/31 03:12:48;;;;;;;10.00;7.38;;;;;;;14.31;100.00;101025.00;4976646;28;20095;-85
2021/08/31 03:15:14;;;;;;;8.60;7.07;;;;;;;14.28;100.00;101028.59;5014448;28;20068;-85
2021/08/31 03:17:41;;;;;;;10.10;7.57;;;;;;;14.28;100.00;101033.03;5005276;28;20127;-85
2021/08/31 03:20:08;;;;;;;10.98;7.38;;;;;;;14.25;100.00;101033.13;5001252;28;20107;-84
2021/08/31 03:22:35;;;;;;;12.75;7.80;;;;;;;14.32;100.00;101035.56;5017664;28;20506;-84
2021/08/31 03:25:03;;;;;;;10.10;7.18;;;;;;;14.31;100.00;101035.63;5002810;28;20574;-85
2021/08/31 03:27:33;;;;;;;13.07;7.70;;;;;;;14.29;100.00;101029.47;4985570;28;20076;-85
2021/08/31 03:30:00;;;;;;;9.85;7.03;;;;;;;14.20;100.00;101035.91;4991250;28;20512;-85
2021/08/31 03:32:27;;;;;;;12.25;7.68;;;;;;;14.25;100.00;101038.44;4984338;28;20049;-85
2021/08/31 03:34:53;;;;;;;10.50;6.97;;;;;;;14.22;100.00;101031.44;5000761;28;20442;-85
2021/08/31 03:37:20;;;;;;;10.90;6.90;;;;;;;14.22;100.00;101044.75;5001039;28;20041;-84
2021/08/31 03:39:47;;;;;;;11.23;7.00;;;;;;;14.25;100.00;101043.78;5001691;28;20046;-85
2021/08/31 03:42:14;;;;;;;11.68;8.00;;;;;;;14.34;100.00;101046.16;4998017;28;20446;-86
2021/08/31 03:44:40;;;;;;;11.45;7.25;;;;;;;14.31;100.00;101043.59;5018523;28;20056;-85
2021/08/31 03:47:07;;;;;;;10.35;7.05;;;;;;;14.24;100.00;101039.38;4978995;28;20140;-85
2021/08/31 03:49:34;;;;;;;9.27;6.82;;;;;;;14.31;100.00;101040.94;4978303;28;20038;-85
2021/08/31 03:52:00;;;;;;;11.50;7.30;;;;;;;14.35;100.00;101051.41;4999307;28;20045;-85
2021/08/31 03:54:27;;;;;;;10.40;6.80;;;;;;;14.32;100.00;101043.53;4978448;28;20038;-85
2021/08/31 03:56:54;;;;;;;13.15;7.30;;;;;;;14.31;100.00;101055.09;4980270;28;20049;-84
2021/08/31 03:59:20;;;;;;;12.30;7.00;;;;;;;14.28;100.00;101044.53;5010894;28;20048;-86
2021/08/31 04:01:47;;;;;;;10.10;6.93;;;;;;;14.25;100.00;101046.44;4996097;28;20041;-87
2021/08/31 04:04:14;;;;;;;10.20;6.95;;;;;;;14.23;100.00;101051.78;4996217;28;20629;-85
2021/08/31 04:06:40;;;;;;;11.20;6.70;;;;;;;14.20;100.00;101051.88;4981092;28;20060;-87
2021/08/31 04:09:08;;;;;;;10.73;6.60;;;;;;;14.18;100.00;101051.03;4997213;28;20049;-85
2021/08/31 04:11:39;;;;;;;7.95;6.28;;;;;;;14.18;100.00;101060.81;4998657;28;20124;-86
2021/08/31 04:14:06;;;;;;;9.20;6.63;;;;;;;14.28;100.00;101059.63;5013954;28;20317;-85
2021/08/31 04:16:32;;;;;;;9.75;6.93;;;;;;;14.21;100.00;101058.94;5002724;28;20045;-86
2021/08/31 04:18:59;;;;;;;12.50;6.85;;;;;;;14.29;100.00;101064.91;4988344;28;20045;-88
2021/08/31 04:21:26;;;;;;;8.23;6.50;;;;;;;14.28;100.00;101054.28;4979153;28;20049;-85
2021/08/31 04:23:52;;;;;;;10.55;7.05;;;;;;;14.19;100.00;101057.22;5011157;28;20488;-86
2021/08/31 04:26:19;;;;;;;10.98;6.85;;;;;;;14.18;100.00;101074.09;4984074;28;21826;-87
2021/08/31 04:28:46;;;;;;;10.15;7.57;;;;;;;14.20;100.00;101062.50;4999822;28;20049;-85
2021/08/31 04:31:13;;;;;;;10.45;7.60;;;;;;;14.26;100.00;101061.44;5017746;28;20052;-86
2021/08/31 04:33:39;;;;;;;11.13;6.93;;;;;;;14.23;100.00;101061.56;5016154;28;20096;-85
2021/08/31 04:36:06;;;;;;;9.80;6.38;;;;;;;14.23;100.00;101062.41;5001086;28;20065;-85
2021/08/31 04:38:33;;;;;;;10.18;6.45;;;;;;;14.18;100.00;101055.50;5000953;28;20044;-85
2021/08/31 04:40:59;;;;;;;11.10;7.13;;;;;;;14.24;100.00;101063.28;4984871;28;20053;-85
2021/08/31 04:43:27;;;;;;;12.38;7.88;;;;;;;14.24;100.00;101060.63;5041443;22;20056;-86
2021/08/31 04:45:54;;;;;;;9.10;7.00;;;;;;;14.26;100.00;101061.44;5019863;28;20056;-85
2021/08/31 04:48:20;;;;;;;10.57;7.10;;;;;;;14.18;100.00;101064.31;4997468;28;20037;-85
2021/08/31 04:50:47;;;;;;;10.20;7.63;;;;;;;14.15;100.00;101074.19;5007706;28;20041;-86
2021/08/31 04:53:13;;;;;;;8.98;6.72;;;;;;;14.28;100.00;101064.94;5028397;28;20037;-86
2021/08/31 04:55:40;;;;;;;9.80;6.10;;;;;;;14.31;100.00;101060.41;4977165;28;20451;-85
2021/08/31 04:58:07;;;;;;;9.40;7.10;;;;;;;14.18;100.00;101058.16;4998655;28;20123;-87
2021/08/31 05:00:34;;;;;;;11.52;8.10;;;;;;;14.23;100.00;101050.94;5015407;28;20049;-86
2021/08/31 05:03:01;;;;;;;12.13;7.20;;;;;;;14.25;100.00;101060.59;4979139;28;20048;-85
2021/08/31 05:05:27;;;;;;;12.48;7.53;;;;;;;14.26;100.00;101056.13;4982892;28;20053;-88
2021/08/31 05:07:54;;;;;;;10.63;7.13;;;;;;;14.22;100.00;101065.13;4981368;28;20045;-86
2021/08/31 05:10:21;;;;;;;10.88;7.53;;;;;;;14.23;100.00;101065.09;4994608;28;20053;-86
2021/08/31 05:12:47;;;;;;;9.55;7.53;;;;;;;14.27;100.00;101066.72;5009688;28;20132;-86
2021/08/31 05:15:14;;;;;;;9.55;7.18;;;;;;;14.25;100.00;101073.88;5015224;28;20045;-86
2021/08/31 05:17:41;;;;;;;10.38;7.30;;;;;;;14.23;100.00;101067.75;5010503;28;20037;-85
2021/08/31 05:20:08;;;;;;;9.02;7.22;;;;;;;14.30;100.00;101065.78;4983579;28;20568;-85
2021/08/31 05:22:35;;;;;;;9.85;7.20;;;;;;;14.27;100.00;101068.50;4983484;28;20037;-85
2021/08/31 05:25:03;;;;;;;12.02;7.00;;;;;;;14.31;100.00;101081.69;5000583;28;20069;-85
2021/08/31 05:27:30;;;;;;;9.25;6.57;;;;;;;14.38;100.00;101074.41;5015441;28;20063;-85
2021/08/31 05:29:57;;;;;;;10.35;7.97;;;;;;;14.44;100.00;101071.53;5015479;28;20045;-85
2021/08/31 05:32:24;;;;;;;10.13;7.00;;;;;;;14.38;100.00;101079.72;5015298;28;20052;-85
2021/08/31 05:34:51;;;;;;;10.00;7.60;;;;;;;14.45;100.00;101070.66;5012151;28;20045;-85
2021/08/31 05:37:18;;;;;;;10.00;7.07;;;;;;;14.48;100.00;101072.38;4971073;28;20045;-86
2021/08/31 05:39:44;;;;;;;9.98;6.85;;;;;;;14.44;100.00;101068.88;4982512;28;20045;-87
2021/08/31 05:42:11;;;;;;;11.38;7.05;;;;;;;14.45;100.00;101072.41;4996736;28;20049;-86
2021/08/31 05:44:39;;;;;;;10.60;7.15;;;;;;;14.48;100.00;101070.56;5009867;28;20049;-85
2021/08/31 05:47:07;;;;;;;9.02;6.50;;;;;;;14.61;100.00;101076.38;4962000;28;20501;-86
2021/08/31 05:49:34;;;;;;;9.55;6.53;;;;;;;14.69;100.00;101081.47;4998336;28;20049;-86
2021/08/31 05:52:01;;;;;;;11.98;7.15;;;;;;;14.77;100.00;101071.47;5013216;28;20049;-88
2021/08/31 05:54:30;;;;;;;8.98;6.80;;;;;;;14.78;100.00;101076.72;4995355;28;20504;-85
2021/08/31 05:56:58;;;;;;;10.18;7.43;;;;;;;14.87;100.00;101070.25;4977341;28;20042;-87
2021/08/31 05:59:25;;;;;;;11.05;6.97;;;;;;;14.86;100.00;101079.16;4962399;28;20045;-88
2021/08/31 06:01:56;;;;;;;12.55;7.10;;;;;;;14.85;100.00;101072.09;4996881;28;20422;-86
2021/08/31 06:04:37;;;;;;;10.77;6.68;;;;;;;15.00;100.00;101076.06;5000810;28;20115;-86
2021/08/31 06:07:06;;;;;;;10.43;6.20;;;;;;;14.97;100.00;101077.03;4996804;28;20055;-86
2021/08/31 06:09:36;;;;;;;10.40;6.72;;;;;;;15.05;100.00;101077.66;4997495;28;20046;-86
2021/08/31 06:12:05;;;;;;;10.23;6.45;;;;;;;15.00;100.00;101087.56;5013627;28;20063;-86
2021/08/31 06:14:31;;;;;;;9.43;7.20;;;;;;;15.11;100.00;101090.75;5013931;28;20132;-86
2021/08/31 06:16:58;;;;;;;8.30;6.28;;;;;;;15.10;100.00;101091.69;4996227;28;20053;-86
2021/08/31 06:19:26;;;;;;;7.93;6.20;;;;;;;15.20;100.00;101095.78;5013543;28;20053;-85
2021/08/31 06:21:52;;;;;;;7.85;6.53;;;;;;;15.23;100.00;101091.28;5013093;28;20045;-86
2021/08/31 06:24:19;;;;;;;10.50;6.93;;;;;;;15.24;100.00;101098.34;5013370;28;20079;-85
2021/08/31 06:26:46;;;;;;;8.43;6.13;;;;;;;15.29;100.00;101096.41;5010355;28;20053;-86
2021/08/31 06:29:13;;;;;;;9.02;6.75;;;;;;;15.43;100.00;101094.16;4994536;28;20050;-86
2021/08/31 06:31:41;;;;;;;8.93;6.00;;;;;;;15.47;100.00;101096.69;4991610;28;20461;-86
2021/08/31 06:34:07;;;;;;;9.35;6.40;;;;;;;15.52;100.00;101088.50;4995895;28;20458;-85
2021/08/31 06:36:35;;;;;;;8.68;6.05;;;;;;;15.59;100.00;101097.16;4978939;28;20046;-88
2021/08/31 06:39:02;;;;;;;8.80;6.43;;;;;;;15.62;100.00;101105.94;5027249;22;20044;-84
2021/08/31 06:41:29;;;;;;;8.48;6.18;;;;;;;15.61;100.00;101104.22;5007549;28;20041;-85
2021/08/31 06:43:56;;;;;;;9.80;6.43;;;;;;;15.54;100.00;101107.09;5005259;28;20046;-83
2021/08/31 06:46:23;;;;;;;9.30;6.82;;;;;;;15.53;100.00;101108.91;5018753;28;20065;-84
2021/08/31 06:49:08;;;;;;;10.95;6.25;;;;;;;15.56;100.00;101111.47;4986267;28;20038;-82
2021/08/31 06:51:34;;;;;;;10.93;6.63;;;;;;;15.47;100.00;101111.78;5003560;28;20045;-85
2021/08/31 06:54:01;;;;;;;9.48;6.25;;;;;;;15.58;100.00;101119.41;4996109;28;20044;-84
2021/08/31 06:56:28;;;;;;;9.15;6.45;;;;;;;15.57;100.00;101123.88;5002038;28;20049;-83
2021/08/31 06:58:55;;;;;;;11.13;7.28;;;;;;;15.59;100.00;101119.34;5033181;28;20060;-85
2021/08/31 07:01:21;;;;;;;8.55;5.78;;;;;;;15.57;100.00;101117.66;5025167;28;20033;-83
2021/08/31 07:03:52;;;;;;;8.75;5.75;;;;;;;15.44;100.00;101123.38;5007902;28;20065;-83
2021/08/31 07:06:20;;;;;;;7.38;5.88;;;;;;;15.54;100.00;101125.75;5002718;28;20048;-84
2021/08/31 07:08:47;;;;;;;10.30;6.75;;;;;;;15.63;100.00;101125.47;5025487;28;20433;-85
2021/08/31 07:11:14;;;;;;;7.80;5.88;;;;;;;15.58;100.00;101133.59;5003959;28;20126;-84
2021/08/31 07:13:40;;;;;;;8.50;6.00;;;;;;;15.52;100.00;101135.59;5008553;28;20042;-86
2021/08/31 07:16:07;;;;;;;9.27;6.03;;;;;;;15.48;100.00;101142.81;5011929;28;20068;-83
2021/08/31 07:18:34;;;;;;;9.45;6.70;;;;;;;15.57;100.00;101141.63;5006291;28;20047;-86
2021/08/31 07:21:01;;;;;;;9.25;6.65;;;;;;;15.53;100.00;101140.84;5007642;28;20095;-86
2021/08/31 07:23:28;;;;;;;9.15;6.47;;;;;;;15.57;100.00;101131.84;4983212;28;20037;-83
2021/08/31 07:25:55;;;;;;;8.82;5.75;;;;;;;15.47;100.00;101146.41;5009388;28;20113;-84
2021/08/31 07:28:24;;;;;;;10.15;6.57;;;;;;;15.53;100.00;101145.31;5010675;28;20046;-83
2021/08/31 07:30:51;;;;;;;7.90;5.72;;;;;;;15.59;100.00;101156.63;4989212;28;20103;-84
2021/08/31 07:33:17;;;;;;;10.60;6.50;;;;;;;15.51;100.00;101157.81;5003483;28;20042;-83
2021/08/31 07:35:46;;;;;;;8.93;7.00;;;;;;;15.56;100.00;101155.88;5022594;28;20073;-83
2021/08/31 07:38:13;;;;;;;8.23;6.25;;;;;;;15.60;100.00;101155.72;5042048;28;20119;-82
2021/08/31 07:40:40;;;;;;;9.48;6.78;;;;;;;15.59;100.00;101153.09;4990399;28;20045;-83
2021/08/31 07:43:06;;;;;;;6.53;5.65;;;;;;;15.62;100.00;101163.66;5008550;28;20052;-83
2021/08/31 07:45:42;;;;;;;7.88;6.07;;;;;;;15.75;100.00;101167.69;5002151;28;20045;-83
2021/08/31 07:48:12;;;;;;;12.10;7.40;;;;;;;15.85;100.00;101176.22;5023184;28;20116;-85
2021/08/31 07:50:39;;;;;;;10.98;6.45;;;;;;;15.89;100.00;101159.19;5023046;28;20058;-83
2021/08/31 07:53:06;;;;;;;11.07;6.28;;;;;;;15.87;100.00;101164.59;5034475;28;20037;-83
2021/08/31 07:55:33;;;;;;;7.63;6.25;;;;;;;16.00;100.00;101162.38;5003071;28;20050;-84
2021/08/31 07:58:00;;;;;;;8.77;6.40;;;;;;;16.00;100.00;101168.59;4988148;28;20041;-82
2021/08/31 08:00:27;;;;;;;7.97;6.65;;;;;;;16.13;100.00;101171.66;5024512;28;20045;-83
2021/08/31 08:02:54;;;;;;;10.02;6.57;;;;;;;16.18;100.00;101180.38;5021626;28;20501;-83
2021/08/31 08:05:21;;;;;;;9.65;6.95;;;;;;;16.24;100.00;101173.97;4997101;28;20044;-83
2021/08/31 08:07:48;;;;;;;11.30;7.00;;;;;;;16.33;100.00;101176.31;5037225;28;20042;-86
2021/08/31 08:10:15;;;;;;;8.80;6.95;;;;;;;16.32;100.00;101185.25;5009793;28;20122;-88
2021/08/31 08:12:44;;;;;;;9.65;6.22;;;;;;;16.35;100.00;101184.25;5009364;28;20050;-87
2021/08/31 08:15:13;;;;;;;8.52;6.32;;;;;;;16.30;100.00;101179.06;5008180;28;20037;-83
2021/08/31 08:17:41;;;;;;;8.43;6.25;;;;;;;16.38;100.00;101185.00;5041012;28;20661;-83
2021/08/31 08:20:10;;;;;;;9.32;6.10;;;;;;;16.45;100.00;101189.19;5022798;28;20073;-86
2021/08/31 08:22:37;;;;;;;9.75;6.40;;;;;;;16.40;100.00;101185.84;5005070;28;20420;-87
2021/08/31 08:25:06;;;;;;;8.60;6.55;;;;;;;16.45;100.00;101183.84;5022804;28;20049;-84
2021/08/31 08:27:34;;;;;;;11.25;5.82;;;;;;;16.56;100.00;101183.47;5014544;28;20053;-83
2021/08/31 08:30:00;;;;;;;7.88;6.10;;;;;;;16.65;96.43;101176.91;4997690;28;20464;-83
2021/08/31 08:32:28;;;;;;;8.50;6.47;;;;;;;16.83;100.00;101190.47;4997704;28;20069;-83
2021/08/31 08:34:54;;;;;;;8.68;6.07;;;;;;;16.77;95.10;101187.16;5014828;28;20038;-84
2021/08/31 08:37:24;;;;;;;9.35;6.55;;;;;;;16.85;95.06;101187.75;4979471;28;20132;-84
2021/08/31 08:39:50;;;;;;;9.35;6.45;;;;;;;16.82;92.87;101186.09;5000338;28;20127;-84
2021/08/31 08:42:17;;;;;;;7.75;6.25;;;;;;;16.85;92.95;101195.75;5012196;28;20049;-82
2021/08/31 08:44:44;;;;;;;8.70;6.20;;;;;;;16.81;94.64;101184.31;4997180;28;20047;-82
2021/08/31 08:47:11;;;;;;;7.78;6.97;;;;;;;16.91;96.72;101189.31;4995835;28;20050;-84
2021/08/31 08:49:38;;;;;;;8.55;6.32;;;;;;;17.01;95.72;101188.03;4996233;28;20048;-83
2021/08/31 08:52:05;;;;;;;8.95;6.70;;;;;;;17.06;98.67;101192.25;5011038;28;20103;-84
2021/08/31 08:54:35;;;;;;;7.97;6.05;;;;;;;17.15;91.35;101186.56;5003778;28;20038;-83
2021/08/31 08:57:01;;;;;;;9.73;5.88;;;;;;;17.22;93.58;101195.19;4988970;28;20061;-83
2021/08/31 08:59:29;;;;;;;9.98;6.60;;;;;;;17.28;93.27;101188.75;5000998;28;20095;-84
2021/08/31 09:01:56;;;;;;;8.85;6.10;;;;;;;17.29;90.02;101193.16;5011176;28;20068;-84
2021/08/31 09:04:48;;;;;;;8.68;6.68;;;;;;;17.35;90.15;101193.78;5006562;28;20037;-83
2021/08/31 09:07:16;;;;;;;7.10;6.13;;;;;;;17.34;92.83;101194.72;5000000;28;20430;-83
2021/08/31 09:09:42;;;;;;;8.25;5.70;;;;;;;17.47;95.35;101192.41;5024176;28;20053;-84
2021/08/31 09:12:34;;;;;;;7.35;5.40;;;;;;;17.60;89.79;101191.00;4995752;28;20045;-83
2021/08/31 09:15:25;;;;;;;9.43;6.25;;;;;;;17.68;88.54;101204.03;5029176;28;20046;-84
2021/08/31 09:18:10;;;;;;;8.25;5.43;;;;;;;17.65;88.98;101196.13;4994001;28;20625;-84
2021/08/31 09:20:47;;;;;;;6.85;5.68;;;;;;;17.66;88.97;101192.56;5012174;28;20057;-85
2021/08/31 09:23:20;;;;;;;7.85;5.85;;;;;;;17.62;90.97;101204.28;5011476;28;20045;-83
2021/08/31 09:25:50;;;;;;;7.22;5.72;;;;;;;17.61;91.44;101199.88;4995095;28;20053;-84
2021/08/31 09:28:18;;;;;;;7.65;5.43;;;;;;;17.63;91.25;101201.53;5007231;28;20046;-84
2021/08/31 09:30:45;;;;;;;8.00;5.45;;;;;;;17.61;92.48;101214.09;5023761;28;20540;-83
2021/08/31 09:33:15;;;;;;;7.30;5.40;;;;;;;17.65;91.26;101205.00;5012840;28;20115;-83
2021/08/31 09:35:58;;;;;;;6.90;5.60;;;;;;;17.56;88.54;101208.06;5009950;28;20045;-82
2021/08/31 09:38:24;;;;;;;7.97;6.10;;;;;;;17.57;85.30;101216.94;4992019;28;20421;-82
2021/08/31 09:40:53;;;;;;;8.52;6.32;;;;;;;17.45;82.70;101213.84;5039232;28;20072;-83
2021/08/31 09:43:25;;;;;;;8.00;6.47;;;;;;;17.47;86.10;101211.09;4975967;28;20128;-81
2021/08/31 09:45:54;;;;;;;7.47;6.28;;;;;;;17.52;88.98;101211.81;4977599;28;20049;-84
2021/08/31 09:48:21;;;;;;;7.35;5.60;;;;;;;17.55;87.97;101227.69;5010082;28;20097;-82
2021/08/31 09:50:50;;;;;;;8.90;5.57;;;;;;;17.52;86.77;101227.84;5036699;28;20033;-82
2021/08/31 09:53:18;;;;;;;8.75;5.95;;;;;;;17.54;87.32;101233.13;4987857;28;20172;-82
2021/08/31 09:55:48;;;;;;;7.30;5.80;;;;;;;17.53;89.75;101229.56;5016927;28;20041;-83
2021/08/31 09:58:16;;;;;;;9.93;5.47;;;;;;;17.60;88.77;101238.22;5005834;28;20131;-82
2021/08/31 10:00:44;;;;;;;7.78;5.53;;;;;;;17.63;90.84;101251.44;5031478;28;20095;-81
2021/08/31 10:03:12;;;;;;;8.07;6.20;;;;;;;17.59;87.81;101247.16;4994932;28;20049;-82
2021/08/31 10:05:40;;;;;;;7.65;5.70;;;;;;;17.67;92.93;101253.06;4986838;28;20194;-82
2021/08/31 10:08:08;;;;;;;9.32;6.20;;;;;;;17.63;85.34;101249.63;4991860;28;20042;-82
2021/08/31 10:10:36;;;;;;;7.97;5.85;;;;;;;17.65;86.65;101253.09;5017867;28;20394;-82
2021/08/31 10:13:08;;;;;;;7.00;5.70;;;;;;;17.55;85.70;101248.22;4986944;28;20099;-82
2021/08/31 10:15:39;;;;;;;7.68;5.95;;;;;;;17.67;85.04;101253.94;5004093;28;20033;-83
2021/08/31 10:18:08;;;;;;;9.88;6.57;;;;;;;17.75;85.26;101259.00;4995660;28;20053;-82
2021/08/31 10:20:40;;;;;;;8.48;5.72;;;;;;;17.73;85.07;101266.19;5010491;28;20033;-83
2021/08/31 10:23:13;;;;;;;11.90;5.75;;;;;;;17.63;82.31;101254.13;4991074;28;20053;-83
2021/08/31 10:25:41;;;;;;;9.70;5.60;;;;;;;17.58;84.33;101254.31;4996434;28;20072;-83
2021/08/31 10:28:21;;;;;;;7.32;5.60;;;;;;;17.68;85.63;101262.81;5009100;28;20050;-84
2021/08/31 10:30:48;;;;;;;7.90;5.47;;;;;;;17.54;82.45;101271.38;5036928;28;20049;-83
2021/08/31 10:33:38;;;;;;;7.47;5.13;;;;;;;17.30;82.60;101272.34;5031368;28;20045;-83
2021/08/31 10:36:07;;;;;;;7.13;6.03;;;;;;;17.24;81.25;101275.28;5007372;28;21637;-84
2021/08/31 10:38:43;;;;;;;6.13;5.15;;;;;;;17.14;82.10;101282.72;4996481;28;20041;-82
2021/08/31 10:41:43;;;;;;;8.00;5.10;;;;;;;17.07;84.22;101282.13;5032332;28;20132;-83
2021/08/31 10:44:12;;;;;;;7.85;6.07;;;;;;;17.02;85.86;101283.19;5015914;28;20122;-83
2021/08/31 10:46:57;;;;;;;6.95;5.30;;;;;;;17.08;84.31;101280.31;5032521;28;20514;-85
2021/08/31 10:49:26;;;;;;;6.72;5.10;;;;;;;17.06;85.11;101283.00;5016677;28;20041;-83
2021/08/31 10:52:02;;;;;;;6.45;5.07;;;;;;;17.17;82.35;101295.97;4999559;28;20585;-83
2021/08/31 10:54:42;;;;;;;9.38;5.40;;;;;;;17.10;81.10;101299.81;5032762;28;20045;-83
2021/08/31 10:57:37;;;;;;;8.00;5.35;;;;;;;17.08;82.23;101286.53;5035542;28;20041;-82
2021/08/31 11:00:16;;;;;;;6.88;5.43;;;;;;;16.99;82.37;101289.53;5003099;28;20049;-83
2021/08/31 11:02:46;;;;;;;8.48;5.60;;;;;;;16.99;86.97;101294.00;5027833;28;20045;-84
2021/08/31 11:05:22;;;;;;;6.50;5.25;;;;;;;16.93;83.01;101296.91;5023556;28;20052;-84
2021/08/31 11:07:52;;;;;;;9.55;4.82;;;;;;;16.78;83.37;101296.50;5031556;28;20052;-86
2021/08/31 11:10:22;;;;;;;6.78;5.15;;;;;;;16.70;83.36;101303.06;5013214;28;20038;-85
2021/08/31 11:12:50;;;;;;;7.35;5.72;;;;;;;16.91;85.03;101301.44;4994187;28;20122;-85
2021/08/31 11:15:20;;;;;;;8.98;5.40;;;;;;;17.03;85.45;101293.81;5014982;28;20128;-85
2021/08/31 11:17:48;;;;;;;10.20;5.03;;;;;;;17.14;82.94;101288.94;5030715;28;20037;-84
2021/08/31 11:20:27;;;;;;;6.07;5.38;;;;;;;17.27;84.01;101296.50;5014723;28;20056;-82